createdAt,value
2018-06-05T00:01:47.122Z,5.37
2018-06-05T00:04:17.209Z,3.97
2018-06-05T00:06:47.312Z,4.67
2018-06-05T00:09:17.353Z,4.43
2018-06-05T00:11:47.539Z,5.10
2018-06-05T00:14:17.655Z,4.73
2018-06-05T00:16:47.749Z,4.67
2018-06-05T00:19:17.792Z,4.50
2018-06-05T00:21:47.827Z,5.13
2018-06-05T00:24:17.975Z,5.97
2018-06-05T00:26:48.057Z,4.93
2018-06-05T00:29:18.095Z,5.50
2018-06-05T00:31:48.285Z,5.50
2018-06-05T00:34:18.336Z,4.83
2018-06-05T00:36:48.488Z,4.40
2018-06-05T00:39:18.595Z,5.73
2018-06-05T00:41:49.225Z,5.73
2018-06-05T00:44:19.637Z,6.03
2018-06-05T00:46:49.666Z,5.50
2018-06-05T00:49:19.712Z,5.13
2018-06-05T00:52:10.973Z,5.50
2018-06-05T00:54:41.019Z,6.00
2018-06-05T00:57:11.035Z,7.40
2018-06-05T00:59:41.106Z,5.53
2018-06-05T01:02:11.186Z,6.30
2018-06-05T01:04:41.226Z,5.70
2018-06-05T01:07:11.338Z,7.53
2018-06-05T01:09:42.040Z,8.67
2018-06-05T01:12:12.268Z,6.80
2018-06-05T01:14:42.380Z,5.77
2018-06-05T01:17:12.603Z,5.93
2018-06-05T01:19:42.746Z,6.30
2018-06-05T01:22:12.893Z,7.07
2018-06-05T01:24:43.223Z,7.97
2018-06-05T01:27:13.336Z,6.13
2018-06-05T01:29:43.452Z,5.87
2018-06-05T01:32:13.493Z,6.43
2018-06-05T01:34:43.578Z,6.40
2018-06-05T01:37:13.748Z,8.67
2018-06-05T01:39:44.036Z,6.90
2018-06-05T01:42:14.168Z,6.47
2018-06-05T01:44:44.293Z,6.23
2018-06-05T01:47:14.388Z,7.43
2018-06-05T01:49:44.518Z,6.97
2018-06-05T01:52:14.592Z,8.83
2018-06-05T01:54:44.672Z,6.97
2018-06-05T01:57:14.812Z,7.17
2018-06-05T01:59:44.938Z,7.67
2018-06-05T02:02:15.052Z,6.90
2018-06-05T02:04:45.842Z,6.37
2018-06-05T02:07:15.932Z,7.27
2018-06-05T02:09:46.054Z,6.80
2018-06-05T02:12:16.171Z,7.43
2018-06-05T02:14:46.190Z,6.73
2018-06-05T02:17:16.306Z,7.30
2018-06-05T02:19:46.426Z,7.07
2018-06-05T02:22:16.533Z,7.33
2018-06-05T02:24:46.620Z,6.73
2018-06-05T02:27:16.666Z,6.87
2018-06-05T02:29:46.751Z,6.80
2018-06-05T02:32:16.854Z,6.87
2018-06-05T02:34:46.972Z,7.80
2018-06-05T02:37:17.075Z,6.90
2018-06-05T02:39:47.144Z,7.73
2018-06-05T02:42:17.316Z,7.37
2018-06-05T02:44:47.432Z,10.03
2018-06-05T02:47:17.537Z,7.73
2018-06-05T02:49:47.632Z,7.00
2018-06-05T02:52:17.694Z,8.13
2018-06-05T02:54:47.779Z,7.40
2018-06-05T02:57:17.909Z,8.07
2018-06-05T02:59:47.945Z,7.80
2018-06-05T03:02:18.150Z,10.23
2018-06-05T03:04:48.194Z,6.93
2018-06-05T03:07:18.267Z,8.07
2018-06-05T03:09:48.355Z,9.10
2018-06-05T03:12:19.005Z,8.43
2018-06-05T03:14:50.062Z,9.33
2018-06-05T03:17:20.128Z,8.37
2018-06-05T03:19:50.220Z,8.27
2018-06-05T03:22:20.372Z,9.70
2018-06-05T03:24:50.417Z,7.80
2018-06-05T03:27:20.614Z,9.87
2018-06-05T03:29:50.738Z,7.93
2018-06-05T03:32:21.332Z,7.80
2018-06-05T03:34:51.456Z,10.70
2018-06-05T03:37:21.676Z,8.07
2018-06-05T03:39:51.802Z,9.03
2018-06-05T03:42:22.008Z,11.40
2018-06-05T03:44:51.877Z,8.27
2018-06-05T03:47:21.977Z,8.70
2018-06-05T03:52:35.267Z,9.37
2018-06-05T03:55:06.188Z,9.30
2018-06-05T03:57:36.363Z,10.83
2018-06-05T04:00:06.536Z,10.93
2018-06-05T04:02:36.832Z,10.40
2018-06-05T04:05:06.863Z,9.20
2018-06-05T04:07:37.012Z,11.50
2018-06-05T04:10:07.268Z,10.60
2018-06-05T04:12:37.453Z,10.47
2018-06-05T04:15:07.551Z,9.53
2018-06-05T04:17:37.773Z,10.77
2018-06-05T04:20:07.874Z,10.93
2018-06-05T04:22:38.016Z,10.53
2018-06-05T04:25:08.632Z,10.33
2018-06-05T04:27:39.128Z,10.73
2018-06-05T04:30:09.187Z,8.30
2018-06-05T04:32:39.308Z,9.83
2018-06-05T04:35:09.512Z,8.50
2018-06-05T04:37:39.675Z,9.70
2018-06-05T04:40:09.940Z,9.87
2018-06-05T04:42:40.107Z,9.67
2018-06-05T04:45:10.286Z,10.33
2018-06-05T04:47:40.390Z,12.93
2018-06-05T04:50:10.424Z,11.97
2018-06-05T04:52:40.424Z,11.07
2018-06-05T04:55:10.447Z,11.40
2018-06-05T04:57:40.527Z,12.23
2018-06-05T05:00:10.657Z,11.50
2018-06-05T05:02:40.699Z,10.70
2018-06-05T05:05:10.726Z,10.03
2018-06-05T05:07:40.771Z,9.60
2018-06-05T05:10:11.023Z,10.33
2018-06-05T05:12:41.074Z,9.97
2018-06-05T05:15:11.241Z,8.77
2018-06-05T05:17:41.362Z,7.97
2018-06-05T05:20:11.331Z,7.63
2018-06-05T05:22:41.494Z,7.50
2018-06-05T05:25:11.589Z,8.30
2018-06-05T05:27:41.712Z,8.20
2018-06-05T05:30:12.313Z,9.23
2018-06-05T05:32:42.445Z,10.97
2018-06-05T05:35:12.318Z,11.53
2018-06-05T05:37:42.297Z,11.33
2018-06-05T05:40:12.446Z,9.73
2018-06-05T05:42:43.205Z,8.93
2018-06-05T05:45:13.297Z,9.47
2018-06-05T05:47:43.523Z,9.73
2018-06-05T05:50:13.658Z,7.40
2018-06-05T05:52:43.747Z,6.70
2018-06-05T05:55:13.846Z,7.23
2018-06-05T05:57:44.001Z,6.10
2018-06-05T06:00:14.080Z,7.50
2018-06-05T06:02:44.138Z,6.27
2018-06-05T06:05:14.376Z,6.43
2018-06-05T06:07:44.475Z,8.17
2018-06-05T06:10:14.633Z,9.50
2018-06-05T06:12:44.739Z,7.77
2018-06-05T06:15:14.831Z,6.43
2018-06-05T06:17:44.970Z,6.87
2018-06-05T06:20:15.213Z,6.77
2018-06-05T06:22:45.319Z,5.83
2018-06-05T06:25:15.957Z,6.07
2018-06-05T06:27:46.091Z,12.73
2018-06-05T06:30:16.310Z,9.47
2018-06-05T06:32:46.381Z,10.33
2018-06-05T06:35:16.452Z,10.23
2018-06-05T06:37:46.522Z,7.63
2018-06-05T06:40:16.634Z,7.70
2018-06-05T06:42:46.863Z,7.00
2018-06-05T06:45:16.965Z,6.43
2018-06-05T06:47:47.054Z,8.33
2018-06-05T06:50:17.240Z,15.23
2018-06-05T06:52:47.396Z,10.37
2018-06-05T06:55:17.458Z,10.53
2018-06-05T06:57:47.597Z,7.03
2018-06-05T07:00:17.704Z,8.73
2018-06-05T07:02:48.661Z,8.20
2018-06-05T07:05:18.759Z,11.00
2018-06-05T07:07:48.902Z,7.93
2018-06-05T07:10:19.078Z,9.97
2018-06-05T07:12:49.442Z,11.73
2018-06-05T07:15:19.564Z,7.50
2018-06-05T07:17:49.702Z,6.80
2018-06-05T07:20:19.786Z,5.67
2018-06-05T07:22:49.945Z,5.57
2018-06-05T07:25:20.204Z,7.13
2018-06-05T07:27:50.340Z,12.77
2018-06-05T07:30:20.441Z,12.13
2018-06-05T07:32:50.584Z,8.77
2018-06-05T07:35:20.658Z,9.83
2018-06-05T07:37:50.800Z,10.43
2018-06-05T07:40:20.952Z,8.03
2018-06-05T07:42:51.075Z,7.70
2018-06-05T07:45:21.186Z,9.77
2018-06-05T07:47:51.388Z,6.80
2018-06-05T07:50:21.425Z,6.47
2018-06-05T07:52:51.604Z,6.40
2018-06-05T07:55:21.730Z,9.63
2018-06-05T07:57:51.752Z,8.60
2018-06-05T08:00:21.912Z,8.93
2018-06-05T08:02:52.051Z,6.77
2018-06-05T08:05:22.116Z,5.27
2018-06-05T08:07:52.172Z,5.17
2018-06-05T08:10:22.272Z,5.40
2018-06-05T08:12:52.430Z,15.03
2018-06-05T08:15:22.547Z,7.87
2018-06-05T08:17:52.665Z,5.30
2018-06-05T08:20:22.944Z,5.33
2018-06-05T08:22:54.716Z,9.17
2018-06-05T08:25:24.901Z,12.90
2018-06-05T08:27:54.948Z,7.17
2018-06-05T08:30:25.179Z,6.40
2018-06-05T08:32:55.432Z,10.37
2018-06-05T08:35:25.500Z,6.63
2018-06-05T08:37:55.729Z,5.87
2018-06-05T08:40:25.828Z,5.70
2018-06-05T08:42:55.949Z,6.77
2018-06-05T08:45:26.022Z,14.43
2018-06-05T08:47:56.211Z,7.00
2018-06-05T08:50:26.865Z,8.00
2018-06-05T08:52:57.001Z,8.60
2018-06-05T08:55:27.636Z,8.47
2018-06-05T08:57:57.814Z,7.37
2018-06-05T09:00:27.922Z,6.00
2018-06-05T09:02:58.052Z,10.00
2018-06-05T09:05:28.094Z,6.47
2018-06-05T09:07:58.315Z,5.33
2018-06-05T09:10:28.472Z,11.17
2018-06-05T09:12:58.536Z,9.60
2018-06-05T09:15:28.565Z,7.23
2018-06-05T09:17:58.611Z,8.07
2018-06-05T09:20:28.753Z,6.77
2018-06-05T09:22:58.437Z,7.00
2018-06-05T09:25:28.475Z,7.33
2018-06-05T09:27:58.651Z,6.90
2018-06-05T09:30:28.677Z,8.63
2018-06-05T09:32:58.714Z,7.53
2018-06-05T09:35:28.763Z,5.30
2018-06-05T09:37:58.793Z,5.20
2018-06-05T09:40:28.920Z,5.60
2018-06-05T09:42:59.079Z,8.93
2018-06-05T09:45:29.225Z,9.50
2018-06-05T09:47:59.267Z,8.77
2018-06-05T09:50:29.516Z,8.63
2018-06-05T09:52:59.633Z,7.80
2018-06-05T09:55:29.715Z,6.27
2018-06-05T09:57:59.866Z,8.67
2018-06-05T10:01:03.437Z,9.10
2018-06-05T10:03:33.706Z,11.27
2018-06-05T10:06:03.884Z,10.10
2018-06-05T10:08:33.937Z,8.20
2018-06-05T10:11:04.076Z,6.20
2018-06-05T10:13:34.181Z,6.30
2018-06-05T10:16:04.329Z,5.23
2018-06-05T10:18:34.361Z,6.53
2018-06-05T10:21:04.535Z,6.73
2018-06-05T10:23:35.313Z,5.23
2018-06-05T10:26:05.411Z,10.67
2018-06-05T10:28:35.551Z,8.47
2018-06-05T10:31:05.609Z,6.63
2018-06-05T10:33:35.705Z,6.17
2018-06-05T10:36:05.920Z,8.43
2018-06-05T10:38:36.653Z,5.60
2018-06-05T10:41:06.855Z,6.50
2018-06-05T10:43:36.929Z,6.93
2018-06-05T10:46:07.041Z,7.17
2018-06-05T10:48:37.037Z,5.40
2018-06-05T10:51:07.173Z,6.17
2018-06-05T10:53:37.919Z,5.33
2018-06-05T10:56:07.980Z,6.03
2018-06-05T10:58:38.041Z,7.03
2018-06-05T11:01:08.098Z,6.30
2018-06-05T11:03:38.701Z,6.53
2018-06-05T11:06:08.971Z,5.60
2018-06-05T11:08:39.044Z,5.53
2018-06-05T11:11:09.069Z,5.87
2018-06-05T11:13:39.158Z,7.37
2018-06-05T11:16:09.165Z,6.97
2018-06-05T11:18:39.330Z,7.60
2018-06-05T11:21:09.407Z,5.37
2018-06-05T11:23:39.528Z,5.13
2018-06-05T11:26:09.549Z,5.70
2018-06-05T11:28:39.587Z,5.97
2018-06-05T11:31:09.665Z,5.13
2018-06-05T11:33:42.346Z,5.23
2018-06-05T11:36:12.471Z,5.17
2018-06-05T11:38:42.524Z,5.83
2018-06-05T11:41:12.589Z,5.87
2018-06-05T11:43:42.620Z,5.77
2018-06-05T11:46:12.748Z,4.90
2018-06-05T11:48:42.816Z,5.33
2018-06-05T11:51:12.900Z,4.10
2018-06-05T11:53:43.244Z,4.17
2018-06-05T11:56:13.366Z,5.00
2018-06-05T11:58:43.948Z,5.30
2018-06-05T12:01:14.378Z,6.07
2018-06-05T12:03:44.696Z,8.53
2018-06-05T12:06:14.798Z,5.00
2018-06-05T12:08:45.668Z,5.80
2018-06-05T12:11:15.746Z,5.17
2018-06-05T12:13:45.878Z,5.43
2018-06-05T12:16:16.396Z,4.10
2018-06-05T12:18:47.268Z,6.17
2018-06-05T12:21:17.373Z,4.63
2018-06-05T12:23:47.423Z,5.40
2018-06-05T12:26:17.593Z,9.70
2018-06-05T12:28:47.743Z,6.63
2018-06-05T12:31:17.880Z,6.17
2018-06-05T12:33:48.051Z,5.60
2018-06-05T12:36:18.120Z,6.50
2018-06-05T12:38:48.244Z,6.73
2018-06-05T12:41:18.375Z,7.33
2018-06-05T12:43:48.451Z,7.63
2018-06-05T12:46:18.528Z,5.57
2018-06-05T12:48:48.645Z,5.30
2018-06-05T12:51:18.389Z,5.33
2018-06-05T12:53:49.059Z,4.97
2018-06-05T12:56:19.211Z,5.57
2018-06-05T12:58:49.305Z,7.77
2018-06-05T13:01:19.469Z,5.00
2018-06-05T13:03:49.608Z,4.80
2018-06-05T13:06:19.819Z,4.10
2018-06-05T13:08:49.865Z,5.40
2018-06-05T13:11:20.059Z,5.73
2018-06-05T13:13:50.196Z,5.70
2018-06-05T13:16:20.289Z,7.83
2018-06-05T13:18:50.393Z,6.00
2018-06-05T13:21:20.540Z,5.43
2018-06-05T13:23:50.698Z,5.80
2018-06-05T13:26:20.903Z,6.17
2018-06-05T13:28:50.927Z,6.43
2018-06-05T13:31:21.091Z,4.87
2018-06-05T13:33:51.920Z,5.40
2018-06-05T13:36:22.099Z,5.77
2018-06-05T13:38:52.230Z,5.37
2018-06-05T13:41:22.515Z,5.03
2018-06-05T13:43:52.808Z,4.07
2018-06-05T13:46:22.907Z,5.87
2018-06-05T13:48:53.103Z,4.37
2018-06-05T13:51:23.245Z,5.33
2018-06-05T13:53:53.943Z,5.10
2018-06-05T13:56:24.011Z,4.60
2018-06-05T13:58:54.121Z,5.70
2018-06-05T14:01:24.311Z,5.10
2018-06-05T14:03:54.627Z,4.17
2018-06-05T14:06:24.776Z,3.93
2018-06-05T14:08:54.879Z,3.83
2018-06-05T14:11:25.610Z,4.60
2018-06-05T14:13:55.629Z,4.93
2018-06-05T14:16:25.862Z,7.47
2018-06-05T14:18:55.937Z,4.30
2018-06-05T14:21:26.205Z,4.40
2018-06-05T14:23:59.769Z,3.70
2018-06-05T14:26:29.871Z,3.47
2018-06-05T14:29:00.090Z,7.60
2018-06-05T14:31:30.242Z,4.90
2018-06-05T14:34:00.295Z,5.27
2018-06-05T14:36:31.467Z,7.20
2018-06-05T14:39:01.543Z,6.50
2018-06-05T14:41:31.604Z,5.30
2018-06-05T14:44:01.685Z,5.00
2018-06-05T14:46:32.495Z,4.90
2018-06-05T14:49:02.643Z,4.57
2018-06-05T14:51:32.774Z,4.67
2018-06-05T14:54:02.813Z,5.53
2018-06-05T14:56:33.012Z,5.20
2018-06-05T14:59:03.185Z,5.30
2018-06-05T15:01:33.373Z,4.70
2018-06-05T15:04:03.455Z,4.90
2018-06-05T15:06:33.581Z,4.87
2018-06-05T15:09:04.641Z,4.93
2018-06-05T15:11:34.682Z,4.53
2018-06-05T15:14:04.800Z,3.97
2018-06-05T15:16:35.039Z,4.90
2018-06-05T15:19:05.974Z,4.50
2018-06-05T15:21:36.109Z,4.93
2018-06-05T15:24:06.327Z,5.83
2018-06-05T15:26:36.419Z,4.80
2018-06-05T15:29:06.558Z,3.97
2018-06-05T15:31:36.627Z,5.10
2018-06-05T15:34:07.309Z,3.93
2018-06-05T15:36:37.487Z,5.10
2018-06-05T15:39:09.479Z,3.40
2018-06-05T15:41:39.608Z,3.50
2018-06-05T15:44:09.700Z,3.70
2018-06-05T15:46:39.848Z,3.40
2018-06-05T15:49:10.072Z,4.20
2018-06-05T15:51:40.780Z,3.60
2018-06-05T15:54:10.892Z,3.20
2018-06-05T15:56:40.936Z,2.83
2018-06-05T15:59:10.984Z,3.50
2018-06-05T16:01:41.146Z,3.87
2018-06-05T16:04:11.342Z,4.60
2018-06-05T16:06:41.561Z,11.00
2018-06-05T16:09:11.908Z,4.97
2018-06-05T16:11:41.924Z,3.97
2018-06-05T16:14:12.100Z,4.77
2018-06-05T16:16:42.266Z,3.83
2018-06-05T16:19:12.339Z,4.93
2018-06-05T16:21:42.653Z,4.23
2018-06-05T16:24:12.715Z,4.50
2018-06-05T16:26:42.813Z,3.33
2018-06-05T16:29:13.028Z,3.87
2018-06-05T16:31:42.818Z,5.83
2018-06-05T16:34:12.827Z,6.20
2018-06-05T16:36:43.407Z,4.40
2018-06-05T16:39:13.522Z,3.93
2018-06-05T16:41:43.568Z,3.97
2018-06-05T16:44:13.661Z,5.57
2018-06-05T16:46:43.716Z,5.03
2018-06-05T16:49:13.839Z,3.80
2018-06-05T16:51:43.887Z,3.37
2018-06-05T16:54:14.577Z,5.87
2018-06-05T16:56:44.690Z,8.00
2018-06-05T16:59:14.770Z,7.70
2018-06-05T17:01:44.887Z,6.80
2018-06-05T17:04:14.935Z,6.30
2018-06-05T17:06:45.011Z,6.77
2018-06-05T17:09:15.271Z,10.00
2018-06-05T17:11:45.452Z,9.13
2018-06-05T17:14:15.662Z,9.50
2018-06-05T17:16:46.791Z,9.27
2018-06-05T17:19:17.017Z,13.90
2018-06-05T17:21:47.371Z,10.60
2018-06-05T17:24:17.525Z,13.17
2018-06-05T17:26:47.597Z,9.60
2018-06-05T17:29:17.795Z,10.60
2018-06-05T17:31:48.329Z,9.37
2018-06-05T17:34:18.811Z,12.03
2018-06-05T17:36:49.017Z,9.80
2018-06-05T17:39:19.725Z,9.97
2018-06-05T17:41:50.877Z,12.60
2018-06-05T17:44:21.213Z,13.70
2018-06-05T17:46:51.359Z,12.23
2018-06-05T17:49:21.610Z,12.50
2018-06-05T17:51:52.003Z,10.50
2018-06-05T17:54:22.050Z,13.03
2018-06-05T17:56:52.205Z,11.93
2018-06-05T17:59:22.993Z,14.47
2018-06-05T18:01:53.040Z,12.03
2018-06-05T18:04:23.120Z,12.80
2018-06-05T18:06:53.218Z,11.47
2018-06-05T18:09:23.334Z,14.47
2018-06-05T18:11:53.356Z,12.60
2018-06-05T18:14:24.062Z,13.20
2018-06-05T18:16:54.210Z,11.03
2018-06-05T18:19:24.398Z,12.63
2018-06-05T18:21:54.589Z,10.67
2018-06-05T18:24:25.420Z,11.33
2018-06-05T18:26:55.552Z,16.43
2018-06-05T18:29:25.707Z,11.40
2018-06-05T18:31:55.818Z,11.13
2018-06-05T18:34:25.892Z,10.37
2018-06-05T18:36:56.058Z,18.13
2018-06-05T18:39:26.442Z,15.33
2018-06-05T18:41:56.525Z,16.57
2018-06-05T18:44:26.574Z,16.83
2018-06-05T18:46:56.776Z,20.60
2018-06-05T18:49:26.860Z,12.90
2018-06-05T18:51:57.024Z,13.07
2018-06-05T18:54:27.168Z,11.70
2018-06-05T18:56:57.351Z,13.17
2018-06-05T18:59:27.614Z,12.57
2018-06-05T19:01:57.780Z,11.30
2018-06-05T19:04:27.928Z,13.57
2018-06-05T19:06:58.180Z,16.57
2018-06-05T19:09:28.405Z,12.40
2018-06-05T19:11:58.486Z,13.53
2018-06-05T19:14:28.548Z,10.73
2018-06-05T19:16:58.748Z,13.80
2018-06-05T19:19:29.533Z,10.60
2018-06-05T19:21:59.798Z,15.77
2018-06-05T19:24:29.959Z,14.63
2018-06-05T19:27:00.068Z,13.10
2018-06-05T19:29:31.094Z,15.07
2018-06-05T19:32:01.134Z,18.00
2018-06-05T19:34:31.159Z,14.00
2018-06-05T19:37:01.212Z,14.67
2018-06-05T19:39:31.394Z,16.83
2018-06-05T19:42:01.447Z,12.73
2018-06-05T19:44:31.625Z,11.67
2018-06-05T19:47:02.713Z,11.60
2018-06-05T19:49:33.333Z,9.33
2018-06-05T19:52:03.772Z,12.20
2018-06-05T19:54:33.937Z,8.43
2018-06-05T19:57:04.122Z,11.13
2018-06-05T19:59:34.446Z,8.93
2018-06-05T20:02:04.583Z,11.23
2018-06-05T20:04:34.844Z,8.37
2018-06-05T20:07:05.026Z,6.77
2018-06-05T20:09:35.199Z,10.50
2018-06-05T20:12:05.424Z,10.27
2018-06-05T20:14:35.563Z,10.73
2018-06-05T20:17:05.687Z,13.87
2018-06-05T20:19:35.435Z,13.07
2018-06-05T20:22:05.192Z,14.10
2018-06-05T20:24:35.239Z,13.03
2018-06-05T20:27:05.889Z,9.30
2018-06-05T20:29:36.031Z,10.33
2018-06-05T20:32:06.191Z,13.67
2018-06-05T20:34:36.305Z,13.10
2018-06-05T20:37:06.459Z,12.13
2018-06-05T20:39:36.710Z,11.30
2018-06-05T20:42:06.769Z,11.33
2018-06-05T20:44:36.951Z,12.70
2018-06-05T20:47:07.111Z,17.10
2018-06-05T20:49:37.244Z,16.30
2018-06-05T20:52:07.518Z,13.07
2018-06-05T20:54:37.687Z,12.10
2018-06-05T20:57:07.861Z,12.30
2018-06-05T20:59:38.054Z,11.13
2018-06-05T21:02:08.211Z,12.27
2018-06-05T21:04:38.318Z,10.47
2018-06-05T21:07:08.432Z,12.67
2018-06-05T21:09:38.624Z,11.67
2018-06-05T21:12:08.822Z,19.63
2018-06-05T21:14:39.135Z,11.93
2018-06-05T21:17:09.330Z,14.53
2018-06-05T21:19:39.501Z,12.80
2018-06-05T21:22:09.679Z,15.27
2018-06-05T21:24:39.903Z,13.17
2018-06-05T21:27:10.153Z,13.53
2018-06-05T21:29:40.261Z,15.43
2018-06-05T21:32:10.461Z,19.43
2018-06-05T21:34:40.541Z,13.13
2018-06-05T21:37:10.763Z,13.20
2018-06-05T21:39:41.132Z,16.63
2018-06-05T21:42:11.627Z,14.40
2018-06-05T21:44:41.717Z,15.10
2018-06-05T21:47:11.813Z,13.67
2018-06-05T21:49:41.879Z,18.30
2018-06-05T21:52:12.064Z,16.50
2018-06-05T21:54:42.287Z,15.97
2018-06-05T21:57:12.383Z,14.07
2018-06-05T21:59:42.491Z,17.87
2018-06-05T22:02:12.609Z,15.40
2018-06-05T22:04:42.702Z,18.63
2018-06-05T22:07:12.766Z,16.53
2018-06-05T22:09:43.038Z,14.50
2018-06-05T22:12:13.212Z,19.17
2018-06-05T22:14:43.440Z,16.17
2018-06-05T22:17:13.590Z,13.50
2018-06-05T22:19:43.689Z,17.70
2018-06-05T22:22:14.366Z,15.27
2018-06-05T22:24:44.481Z,17.23
2018-06-05T22:27:14.574Z,14.00
2018-06-05T22:29:44.726Z,15.13
2018-06-05T22:32:14.806Z,18.20
2018-06-05T22:34:45.056Z,17.53
2018-06-05T22:37:15.245Z,15.07
2018-06-05T22:39:45.481Z,14.50
2018-06-05T22:42:15.690Z,15.93
2018-06-05T22:44:45.859Z,15.43
2018-06-05T22:47:16.037Z,14.93
2018-06-05T22:49:46.200Z,21.77
2018-06-05T22:52:16.342Z,14.70
2018-06-05T22:54:46.638Z,15.37
2018-06-05T22:57:16.862Z,15.63
2018-06-05T22:59:46.926Z,15.67
2018-06-05T23:02:16.967Z,13.73
2018-06-05T23:04:47.085Z,18.13
2018-06-05T23:07:17.188Z,18.93
2018-06-05T23:09:47.929Z,16.17
2018-06-05T23:12:18.004Z,17.83
2018-06-05T23:14:48.058Z,14.70
2018-06-05T23:17:18.166Z,18.37
2018-06-05T23:19:48.256Z,19.70
2018-06-05T23:22:18.326Z,15.73
2018-06-05T23:24:48.448Z,15.70
2018-06-05T23:27:18.598Z,16.87
2018-06-05T23:29:48.746Z,17.57
2018-06-05T23:32:18.844Z,16.23
2018-06-05T23:34:48.832Z,17.33
2018-06-05T23:37:18.952Z,17.30
2018-06-05T23:39:49.176Z,14.27
2018-06-05T23:42:19.300Z,14.83
2018-06-05T23:44:49.350Z,18.47
2018-06-05T23:47:19.440Z,17.70
2018-06-05T23:49:49.590Z,17.60
2018-06-05T23:52:19.626Z,15.93
2018-06-05T23:54:49.759Z,15.23
2018-06-05T23:57:19.902Z,15.50
2018-06-05T23:59:50.055Z,19.53
